PWSweather.com
Personal Weather Stations
Station Observations
K4FB1
Clubhouse Heritage, Lakeland, FL 33812

Clubhouse HeritageLakeland, FL 33812

Lat: 27.969224, Lon: -81.897769

Elevation: 145

Station Type: Davis Vantage Pro2

http://www.ClubhouseWX.com

High Low Average
Temperature 70.8°F21.6°C 40.9°F4.9°C 55.1°F12.8°C
Dew Point 42.2°F5.7°C -52.2°F-46.8°C 13.6°F-10.2°C
Winds 9.0 mph 14.5 kmh Calm Calm 4.0 mph W6.4 kmh W
Wind Gusts 18.0 mph29.0 kmh -- 8.0 mph12.9 kmh
Humidity 71% 0% 32%
Pressure 30.15 in1021.0 mb 30.05 in1017.6 mb -
Precipitation 0.00 in0.0 mm - -
Hour Temp Dew Point Humidity Winds Wind Gusts Pressure Precip Precip Rate Daily Precip Total
12:00 AM 48.5°F9.2°C 38.8°F3.8°C 69% 1.0 mph NW1.6 kmh NW 3.0 mph4.8 kmh 30.07 in1018.3 mb 0.00 in0.0 mm 0.00 in0.0 mm 0.00 in0.0 mm
12:05 AM 48.3°F9.1°C 38.2°F3.4°C 68% 1.0 mph NNW1.6 kmh NNW 3.0 mph4.8 kmh 30.08 in1018.6 mb 0.00 in0.0 mm 0.00 in0.0 mm 0.00 in0.0 mm
12:10 AM 48.1°F8.9°C 37.7°F3.2°C 67% 1.0 mph NNW1.6 kmh NNW 3.0 mph4.8 kmh 30.08 in1018.6 mb 0.00 in0.0 mm 0.00 in0.0 mm 0.00 in0.0 mm
12:15 AM 47.8°F8.8°C 37.4°F3.0°C 67% 1.0 mph NNW1.6 kmh NNW 3.0 mph4.8 kmh 30.08 in1018.6 mb 0.00 in0.0 mm 0.00 in0.0 mm 0.00 in0.0 mm
12:20 AM 47.4°F8.6°C 36.2°F2.3°C 65% 1.0 mph NNW1.6 kmh NNW 2.0 mph3.2 kmh 30.08 in1018.6 mb 0.00 in0.0 mm 0.00 in0.0 mm 0.00 in0.0 mm
12:25 AM 47.0°F8.3°C 35.0°F1.7°C 63% 1.0 mph NNW1.6 kmh NNW 1.0 mph1.6 kmh 30.08 in1018.6 mb 0.00 in0.0 mm 0.00 in0.0 mm 0.00 in0.0 mm
12:30 AM 46.7°F8.2°C 33.5°F0.8°C 60% 1.0 mph NNW1.6 kmh NNW 2.0 mph3.2 kmh 30.08 in1018.6 mb 0.00 in0.0 mm 0.00 in0.0 mm 0.00 in0.0 mm
12:35 AM 46.5°F8.1°C 31.2°F-0.4°C 55% 1.0 mph NNW1.6 kmh NNW 2.0 mph3.2 kmh 30.08 in1018.6 mb 0.00 in0.0 mm 0.00 in0.0 mm 0.00 in0.0 mm
12:40 AM 46.3°F7.9°C 30.5°F-0.8°C 54% Calm Calm 2.0 mph3.2 kmh 30.08 in1018.6 mb 0.00 in0.0 mm 0.00 in0.0 mm 0.00 in0.0 mm
12:45 AM 46.1°F7.8°C 29.4°F-1.4°C 52% Calm Calm 2.0 mph3.2 kmh 30.09 in1019.0 mb 0.00 in0.0 mm 0.00 in0.0 mm 0.00 in0.0 mm
12:50 AM 45.9°F7.7°C 26.3°F-3.2°C 46% 1.0 mph NNW1.6 kmh NNW 3.0 mph4.8 kmh 30.09 in1019.0 mb 0.00 in0.0 mm 0.00 in0.0 mm 0.00 in0.0 mm
12:55 AM 45.9°F7.7°C 22.9°F-5.1°C 40% 1.0 mph NNW1.6 kmh NNW 3.0 mph4.8 kmh 30.09 in1019.0 mb 0.00 in0.0 mm 0.00 in0.0 mm 0.00 in0.0 mm
01:00 AM 45.9°F7.7°C 21.1°F-6.1°C 37% 1.0 mph NW1.6 kmh NW 3.0 mph4.8 kmh 30.09 in1019.0 mb 0.00 in0.0 mm 0.00 in0.0 mm 0.00 in0.0 mm
01:05 AM 46.0°F7.8°C 21.8°F-5.7°C 38% 1.0 mph NW1.6 kmh NW 3.0 mph4.8 kmh 30.08 in1018.6 mb 0.00 in0.0 mm 0.00 in0.0 mm 0.00 in0.0 mm
01:10 AM 46.1°F7.8°C 19.9°F-6.7°C 35% 1.0 mph NW1.6 kmh NW 3.0 mph4.8 kmh 30.08 in1018.6 mb 0.00 in0.0 mm 0.00 in0.0 mm 0.00 in0.0 mm
01:15 AM 46.2°F7.9°C 22.6°F-5.2°C 39% 1.0 mph NW1.6 kmh NW 3.0 mph4.8 kmh 30.08 in1018.6 mb 0.00 in0.0 mm 0.00 in0.0 mm 0.00 in0.0 mm
01:20 AM 46.0°F7.8°C 23.6°F-4.7°C 41% 1.0 mph NW1.6 kmh NW 2.0 mph3.2 kmh 30.08 in1018.6 mb 0.00 in0.0 mm 0.00 in0.0 mm 0.00 in0.0 mm
01:25 AM 45.8°F7.7°C 24.0°F-4.4°C 42% Calm Calm 1.0 mph1.6 kmh 30.08 in1018.6 mb 0.00 in0.0 mm 0.00 in0.0 mm 0.00 in0.0 mm
01:30 AM 45.5°F7.5°C 23.1°F-4.9°C 41% Calm Calm 1.0 mph1.6 kmh 30.08 in1018.6 mb 0.00 in0.0 mm 0.00 in0.0 mm 0.00 in0.0 mm
01:35 AM 45.2°F7.3°C 22.3°F-5.4°C 40% Calm Calm 1.0 mph1.6 kmh 30.08 in1018.6 mb 0.00 in0.0 mm 0.00 in0.0 mm 0.00 in0.0 mm
01:40 AM 44.9°F7.2°C 21.4°F-5.9°C 39% Calm Calm 1.0 mph1.6 kmh 30.08 in1018.6 mb 0.00 in0.0 mm 0.00 in0.0 mm 0.00 in0.0 mm
01:45 AM 44.7°F7.1°C 19.3°F-7.1°C 36% Calm Calm 1.0 mph1.6 kmh 30.08 in1018.6 mb 0.00 in0.0 mm 0.00 in0.0 mm 0.00 in0.0 mm
01:50 AM 44.5°F6.9°C 17.1°F-8.3°C 33% Calm Calm 1.0 mph1.6 kmh 30.08 in1018.6 mb 0.00 in0.0 mm 0.00 in0.0 mm 0.00 in0.0 mm
01:55 AM 44.3°F6.8°C 14.8°F-9.6°C 30% Calm Calm 1.0 mph1.6 kmh 30.08 in1018.6 mb 0.00 in0.0 mm 0.00 in0.0 mm 0.00 in0.0 mm
02:00 AM 44.1°F6.7°C 13.0°F-10.6°C 28% Calm Calm 2.0 mph3.2 kmh 30.08 in1018.6 mb 0.00 in0.0 mm 0.00 in0.0 mm 0.00 in0.0 mm
02:05 AM 44.0°F6.7°C 11.3°F-11.5°C 26% Calm Calm 2.0 mph3.2 kmh 30.07 in1018.3 mb 0.00 in0.0 mm 0.00 in0.0 mm 0.00 in0.0 mm
02:10 AM 43.8°F6.6°C 7.4°F-13.7°C 22% 1.0 mph NW1.6 kmh NW 2.0 mph3.2 kmh 30.07 in1018.3 mb 0.00 in0.0 mm 0.00 in0.0 mm 0.00 in0.0 mm
02:15 AM 43.8°F6.6°C 1.7°F-16.8°C 17% 1.0 mph NW1.6 kmh NW 3.0 mph4.8 kmh 30.08 in1018.6 mb 0.00 in0.0 mm 0.00 in0.0 mm 0.00 in0.0 mm
02:20 AM 43.8°F6.6°C -2.4°F-19.1°C 14% 1.0 mph NW1.6 kmh NW 3.0 mph4.8 kmh 30.07 in1018.3 mb 0.00 in0.0 mm 0.00 in0.0 mm 0.00 in0.0 mm
02:25 AM 43.8°F6.6°C -4.0°F-20.0°C 13% 1.0 mph NW1.6 kmh NW 3.0 mph4.8 kmh 30.07 in1018.3 mb 0.00 in0.0 mm 0.00 in0.0 mm 0.00 in0.0 mm
02:30 AM 43.6°F6.4°C -2.6°F-19.2°C 14% 1.0 mph NW1.6 kmh NW 2.0 mph3.2 kmh 30.07 in1018.3 mb 0.00 in0.0 mm 0.00 in0.0 mm 0.00 in0.0 mm
02:35 AM 43.4°F6.3°C 0.1°F-17.7°C 16% Calm Calm 1.0 mph1.6 kmh 30.07 in1018.3 mb 0.00 in0.0 mm 0.00 in0.0 mm 0.00 in0.0 mm
02:40 AM 43.3°F6.3°C -1.4°F-18.6°C 15% Calm Calm 1.0 mph1.6 kmh 30.06 in1017.9 mb 0.00 in0.0 mm 0.00 in0.0 mm 0.00 in0.0 mm
02:45 AM 43.1°F6.2°C -1.5°F-18.6°C 15% Calm Calm 1.0 mph1.6 kmh 30.06 in1017.9 mb 0.00 in0.0 mm 0.00 in0.0 mm 0.00 in0.0 mm
02:50 AM 42.8°F6.0°C 0.9°F-17.3°C 17% Calm Calm 1.0 mph1.6 kmh 30.06 in1017.9 mb 0.00 in0.0 mm 0.00 in0.0 mm 0.00 in0.0 mm
02:55 AM 42.6°F5.9°C 0.7°F-17.4°C 17% Calm Calm -- 30.06 in1017.9 mb 0.00 in0.0 mm 0.00 in0.0 mm 0.00 in0.0 mm
03:00 AM 42.4°F5.8°C -2.1°F-18.9°C 15% Calm Calm 1.0 mph1.6 kmh 30.06 in1017.9 mb 0.00 in0.0 mm 0.00 in0.0 mm 0.00 in0.0 mm
03:05 AM 42.3°F5.7°C -6.8°F-21.6°C 12% Calm Calm 1.0 mph1.6 kmh 30.06 in1017.9 mb 0.00 in0.0 mm 0.00 in0.0 mm 0.00 in0.0 mm
03:10 AM 42.2°F5.7°C -10.6°F-23.7°C 10% Calm Calm 1.0 mph1.6 kmh 30.06 in1017.9 mb 0.00 in0.0 mm 0.00 in0.0 mm 0.00 in0.0 mm
03:15 AM 42.2°F5.7°C -17.7°F-27.6°C 7% Calm Calm 2.0 mph3.2 kmh 30.06 in1017.9 mb 0.00 in0.0 mm 0.00 in0.0 mm 0.00 in0.0 mm
03:20 AM 42.3°F5.7°C -40.6°F-40.3°C 2% 1.0 mph NW1.6 kmh NW 3.0 mph4.8 kmh 30.06 in1017.9 mb 0.00 in0.0 mm 0.00 in0.0 mm 0.00 in0.0 mm
03:25 AM 42.3°F5.7°C -52.2°F-46.8°C 0% 1.0 mph NW1.6 kmh NW 3.0 mph4.8 kmh 30.06 in1017.9 mb 0.00 in0.0 mm 0.00 in0.0 mm 0.00 in0.0 mm
03:30 AM 42.4°F5.8°C -52.2°F-46.8°C 0% 1.0 mph NW1.6 kmh NW 2.0 mph3.2 kmh 30.06 in1017.9 mb 0.00 in0.0 mm 0.00 in0.0 mm 0.00 in0.0 mm
03:35 AM 42.4°F5.8°C -52.2°F-46.8°C 0% 1.0 mph NW1.6 kmh NW 3.0 mph4.8 kmh 30.06 in1017.9 mb 0.00 in0.0 mm 0.00 in0.0 mm 0.00 in0.0 mm
03:40 AM 42.4°F5.8°C -52.2°F-46.8°C 0% 1.0 mph NW1.6 kmh NW 3.0 mph4.8 kmh 30.06 in1017.9 mb 0.00 in0.0 mm 0.00 in0.0 mm 0.00 in0.0 mm
03:45 AM 42.3°F5.7°C -52.2°F-46.8°C 0% 1.0 mph NW1.6 kmh NW 2.0 mph3.2 kmh 30.05 in1017.6 mb 0.00 in0.0 mm 0.00 in0.0 mm 0.00 in0.0 mm
03:50 AM 42.2°F5.7°C -52.2°F-46.8°C 0% 1.0 mph NW1.6 kmh NW 2.0 mph3.2 kmh 30.06 in1017.9 mb 0.00 in0.0 mm 0.00 in0.0 mm 0.00 in0.0 mm
03:55 AM 42.0°F5.6°C -52.2°F-46.8°C 0% 1.0 mph NW1.6 kmh NW 2.0 mph3.2 kmh 30.06 in1017.9 mb 0.00 in0.0 mm 0.00 in0.0 mm 0.00 in0.0 mm
04:00 AM 41.9°F5.5°C -52.2°F-46.8°C 0% Calm Calm 2.0 mph3.2 kmh 30.06 in1017.9 mb 0.00 in0.0 mm 0.00 in0.0 mm 0.00 in0.0 mm
04:05 AM 41.8°F5.4°C -52.2°F-46.8°C 0% Calm Calm 2.0 mph3.2 kmh 30.05 in1017.6 mb 0.00 in0.0 mm 0.00 in0.0 mm 0.00 in0.0 mm
04:10 AM 41.7°F5.4°C -52.2°F-46.8°C 0% 1.0 mph NW1.6 kmh NW 2.0 mph3.2 kmh 30.06 in1017.9 mb 0.00 in0.0 mm 0.00 in0.0 mm 0.00 in0.0 mm
04:15 AM 41.5°F5.3°C -52.2°F-46.8°C 0% 1.0 mph NW1.6 kmh NW 2.0 mph3.2 kmh 30.05 in1017.6 mb 0.00 in0.0 mm 0.00 in0.0 mm 0.00 in0.0 mm
04:20 AM 41.4°F5.2°C -52.2°F-46.8°C 0% 1.0 mph NW1.6 kmh NW 2.0 mph3.2 kmh 30.06 in1017.9 mb 0.00 in0.0 mm 0.00 in0.0 mm 0.00 in0.0 mm
04:25 AM 41.3°F5.2°C -52.2°F-46.8°C 0% 1.0 mph NW1.6 kmh NW 2.0 mph3.2 kmh 30.06 in1017.9 mb 0.00 in0.0 mm 0.00 in0.0 mm 0.00 in0.0 mm
04:30 AM 41.2°F5.1°C -52.2°F-46.8°C 0% 1.0 mph NW1.6 kmh NW 2.0 mph3.2 kmh 30.06 in1017.9 mb 0.00 in0.0 mm 0.00 in0.0 mm 0.00 in0.0 mm
04:35 AM 41.2°F5.1°C -52.2°F-46.8°C 0% 1.0 mph NW1.6 kmh NW 2.0 mph3.2 kmh 30.06 in1017.9 mb 0.00 in0.0 mm 0.00 in0.0 mm 0.00 in0.0 mm
04:40 AM 41.2°F5.1°C -52.2°F-46.8°C 0% 1.0 mph NW1.6 kmh NW 2.0 mph3.2 kmh 30.06 in1017.9 mb 0.00 in0.0 mm 0.00 in0.0 mm 0.00 in0.0 mm
04:45 AM 41.3°F5.2°C -52.2°F-46.8°C 0% 1.0 mph NW1.6 kmh NW 2.0 mph3.2 kmh 30.06 in1017.9 mb 0.00 in0.0 mm 0.00 in0.0 mm 0.00 in0.0 mm
04:50 AM 41.3°F5.2°C -52.2°F-46.8°C 0% Calm Calm 2.0 mph3.2 kmh 30.06 in1017.9 mb 0.00 in0.0 mm 0.00 in0.0 mm 0.00 in0.0 mm
04:55 AM 41.3°F5.2°C -52.2°F-46.8°C 0% Calm Calm 1.0 mph1.6 kmh 30.06 in1017.9 mb 0.00 in0.0 mm 0.00 in0.0 mm 0.00 in0.0 mm
05:00 AM 41.3°F5.2°C -52.2°F-46.8°C 0% Calm Calm 1.0 mph1.6 kmh 30.06 in1017.9 mb 0.00 in0.0 mm 0.00 in0.0 mm 0.00 in0.0 mm
05:05 AM 41.3°F5.2°C -52.2°F-46.8°C 0% Calm Calm 1.0 mph1.6 kmh 30.06 in1017.9 mb 0.00 in0.0 mm 0.00 in0.0 mm 0.00 in0.0 mm
05:10 AM 41.1°F5.1°C -52.2°F-46.8°C 0% Calm Calm 1.0 mph1.6 kmh 30.06 in1017.9 mb 0.00 in0.0 mm 0.00 in0.0 mm 0.00 in0.0 mm
05:15 AM 41.1°F5.1°C -52.2°F-46.8°C 0% Calm Calm 1.0 mph1.6 kmh 30.07 in1018.3 mb 0.00 in0.0 mm 0.00 in0.0 mm 0.00 in0.0 mm
05:20 AM 40.9°F4.9°C -52.2°F-46.8°C 0% Calm Calm 1.0 mph1.6 kmh 30.07 in1018.3 mb 0.00 in0.0 mm 0.00 in0.0 mm 0.00 in0.0 mm
05:25 AM 40.9°F4.9°C -52.2°F-46.8°C 0% Calm Calm 3.0 mph4.8 kmh 30.07 in1018.3 mb 0.00 in0.0 mm 0.00 in0.0 mm 0.00 in0.0 mm
05:30 AM 41.0°F5.0°C -52.2°F-46.8°C 0% 1.0 mph NW1.6 kmh NW 3.0 mph4.8 kmh 30.07 in1018.3 mb 0.00 in0.0 mm 0.00 in0.0 mm 0.00 in0.0 mm
05:35 AM 41.1°F5.1°C -52.2°F-46.8°C 0% 1.0 mph NW1.6 kmh NW 3.0 mph4.8 kmh 30.07 in1018.3 mb 0.00 in0.0 mm 0.00 in0.0 mm 0.00 in0.0 mm
05:40 AM 41.7°F5.4°C -52.2°F-46.8°C 0% 2.0 mph NW3.2 kmh NW 4.0 mph6.4 kmh 30.07 in1018.3 mb 0.00 in0.0 mm 0.00 in0.0 mm 0.00 in0.0 mm
05:45 AM 42.8°F6.0°C -52.2°F-46.8°C 0% 2.0 mph NW3.2 kmh NW 4.0 mph6.4 kmh 30.07 in1018.3 mb 0.00 in0.0 mm 0.00 in0.0 mm 0.00 in0.0 mm
05:50 AM 43.8°F6.6°C -52.2°F-46.8°C 0% 2.0 mph NW3.2 kmh NW 4.0 mph6.4 kmh 30.07 in1018.3 mb 0.00 in0.0 mm 0.00 in0.0 mm 0.00 in0.0 mm
05:55 AM 44.2°F6.8°C -52.2°F-46.8°C 0% 2.0 mph NW3.2 kmh NW 3.0 mph4.8 kmh 30.07 in1018.3 mb 0.00 in0.0 mm 0.00 in0.0 mm 0.00 in0.0 mm
06:00 AM 44.2°F6.8°C -52.2°F-46.8°C 0% 1.0 mph NW1.6 kmh NW 3.0 mph4.8 kmh 30.07 in1018.3 mb 0.00 in0.0 mm 0.00 in0.0 mm 0.00 in0.0 mm
06:05 AM 44.5°F6.9°C -52.2°F-46.8°C 0% 2.0 mph NW3.2 kmh NW 4.0 mph6.4 kmh 30.07 in1018.3 mb 0.00 in0.0 mm 0.00 in0.0 mm 0.00 in0.0 mm
06:10 AM 44.3°F6.8°C -52.2°F-46.8°C 0% 1.0 mph NW1.6 kmh NW 4.0 mph6.4 kmh 30.07 in1018.3 mb 0.00 in0.0 mm 0.00 in0.0 mm 0.00 in0.0 mm
06:15 AM 44.0°F6.7°C -52.2°F-46.8°C 0% 1.0 mph NW1.6 kmh NW 2.0 mph3.2 kmh 30.07 in1018.3 mb 0.00 in0.0 mm 0.00 in0.0 mm 0.00 in0.0 mm
06:20 AM 43.7°F6.5°C -52.2°F-46.8°C 0% 1.0 mph NW1.6 kmh NW 2.0 mph3.2 kmh 30.07 in1018.3 mb 0.00 in0.0 mm 0.00 in0.0 mm 0.00 in0.0 mm
06:25 AM 43.5°F6.4°C -52.2°F-46.8°C 0% 1.0 mph NW1.6 kmh NW 2.0 mph3.2 kmh 30.07 in1018.3 mb 0.00 in0.0 mm 0.00 in0.0 mm 0.00 in0.0 mm
06:30 AM 43.3°F6.3°C -52.2°F-46.8°C 0% Calm Calm 3.0 mph4.8 kmh 30.07 in1018.3 mb 0.00 in0.0 mm 0.00 in0.0 mm 0.00 in0.0 mm
06:35 AM 43.0°F6.1°C -52.2°F-46.8°C 0% 1.0 mph NW1.6 kmh NW 3.0 mph4.8 kmh 30.07 in1018.3 mb 0.00 in0.0 mm 0.00 in0.0 mm 0.00 in0.0 mm
06:40 AM 42.8°F6.0°C -52.2°F-46.8°C 0% 1.0 mph NW1.6 kmh NW 3.0 mph4.8 kmh 30.07 in1018.3 mb 0.00 in0.0 mm 0.00 in0.0 mm 0.00 in0.0 mm
06:45 AM 43.3°F6.3°C -52.2°F-46.8°C 0% 1.0 mph NW1.6 kmh NW 4.0 mph6.4 kmh 30.08 in1018.6 mb 0.00 in0.0 mm 0.00 in0.0 mm 0.00 in0.0 mm
06:50 AM 43.8°F6.6°C -52.2°F-46.8°C 0% 2.0 mph NW3.2 kmh NW 4.0 mph6.4 kmh 30.08 in1018.6 mb 0.00 in0.0 mm 0.00 in0.0 mm 0.00 in0.0 mm
06:55 AM 44.1°F6.7°C -52.2°F-46.8°C 0% 2.0 mph NW3.2 kmh NW 4.0 mph6.4 kmh 30.08 in1018.6 mb 0.00 in0.0 mm 0.00 in0.0 mm 0.00 in0.0 mm
07:00 AM 44.2°F6.8°C -52.2°F-46.8°C 0% 1.0 mph NW1.6 kmh NW 4.0 mph6.4 kmh 30.09 in1019.0 mb 0.00 in0.0 mm 0.00 in0.0 mm 0.00 in0.0 mm
07:05 AM 44.2°F6.8°C -52.2°F-46.8°C 0% 1.0 mph NNW1.6 kmh NNW 4.0 mph6.4 kmh 30.09 in1019.0 mb 0.00 in0.0 mm 0.00 in0.0 mm 0.00 in0.0 mm
07:10 AM 44.4°F6.9°C -52.2°F-46.8°C 0% 1.0 mph NNW1.6 kmh NNW 4.0 mph6.4 kmh 30.09 in1019.0 mb 0.00 in0.0 mm 0.00 in0.0 mm 0.00 in0.0 mm
07:15 AM 44.4°F6.9°C -52.2°F-46.8°C 0% 1.0 mph NW1.6 kmh NW 3.0 mph4.8 kmh 30.09 in1019.0 mb 0.00 in0.0 mm 0.00 in0.0 mm 0.00 in0.0 mm
07:20 AM 44.5°F6.9°C -52.2°F-46.8°C 0% 1.0 mph NW1.6 kmh NW 3.0 mph4.8 kmh 30.09 in1019.0 mb 0.00 in0.0 mm 0.00 in0.0 mm 0.00 in0.0 mm
07:25 AM 45.0°F7.2°C -52.2°F-46.8°C 0% 2.0 mph NW3.2 kmh NW 4.0 mph6.4 kmh 30.09 in1019.0 mb 0.00 in0.0 mm 0.00 in0.0 mm 0.00 in0.0 mm
07:30 AM 45.4°F7.4°C -52.2°F-46.8°C 0% 2.0 mph NW3.2 kmh NW 4.0 mph6.4 kmh 30.09 in1019.0 mb 0.00 in0.0 mm 0.00 in0.0 mm 0.00 in0.0 mm
07:35 AM 45.6°F7.6°C -52.2°F-46.8°C 0% 1.0 mph NW1.6 kmh NW 3.0 mph4.8 kmh 30.10 in1019.3 mb 0.00 in0.0 mm 0.00 in0.0 mm 0.00 in0.0 mm
07:40 AM 45.5°F7.5°C -52.2°F-46.8°C 0% Calm Calm 3.0 mph4.8 kmh 30.10 in1019.3 mb 0.00 in0.0 mm 0.00 in0.0 mm 0.00 in0.0 mm
07:45 AM 45.3°F7.4°C -52.2°F-46.8°C 0% Calm Calm 3.0 mph4.8 kmh 30.10 in1019.3 mb 0.00 in0.0 mm 0.00 in0.0 mm 0.00 in0.0 mm
07:50 AM 45.1°F7.3°C -52.2°F-46.8°C 0% 1.0 mph NW1.6 kmh NW 3.0 mph4.8 kmh 30.10 in1019.3 mb 0.00 in0.0 mm 0.00 in0.0 mm 0.00 in0.0 mm
07:55 AM 45.0°F7.2°C -52.2°F-46.8°C 0% 1.0 mph NW1.6 kmh NW 3.0 mph4.8 kmh 30.10 in1019.3 mb 0.00 in0.0 mm 0.00 in0.0 mm 0.00 in0.0 mm
08:00 AM 45.1°F7.3°C -52.2°F-46.8°C 0% 2.0 mph NW3.2 kmh NW 4.0 mph6.4 kmh 30.10 in1019.3 mb 0.00 in0.0 mm 0.00 in0.0 mm 0.00 in0.0 mm
08:05 AM 45.5°F7.5°C -52.2°F-46.8°C 0% 2.0 mph NW3.2 kmh NW 4.0 mph6.4 kmh 30.11 in1019.6 mb 0.00 in0.0 mm 0.00 in0.0 mm 0.00 in0.0 mm
08:10 AM 46.0°F7.8°C -52.2°F-46.8°C 0% 2.0 mph NW3.2 kmh NW 4.0 mph6.4 kmh 30.11 in1019.6 mb 0.00 in0.0 mm 0.00 in0.0 mm 0.00 in0.0 mm
08:15 AM 46.5°F8.1°C -52.2°F-46.8°C 0% 3.0 mph NW4.8 kmh NW 6.0 mph9.7 kmh 30.11 in1019.6 mb 0.00 in0.0 mm 0.00 in0.0 mm 0.00 in0.0 mm
08:20 AM 46.9°F8.3°C -52.2°F-46.8°C 0% 3.0 mph NW4.8 kmh NW 6.0 mph9.7 kmh 30.11 in1019.6 mb 0.00 in0.0 mm 0.00 in0.0 mm 0.00 in0.0 mm
08:25 AM 47.2°F8.4°C -52.2°F-46.8°C 0% 3.0 mph NW4.8 kmh NW 6.0 mph9.7 kmh 30.12 in1020.0 mb 0.00 in0.0 mm 0.00 in0.0 mm 0.00 in0.0 mm
08:30 AM 47.5°F8.6°C -52.2°F-46.8°C 0% 3.0 mph NW4.8 kmh NW 7.0 mph11.3 kmh 30.12 in1020.0 mb 0.00 in0.0 mm 0.00 in0.0 mm 0.00 in0.0 mm
08:35 AM 47.8°F8.8°C -52.2°F-46.8°C 0% 3.0 mph NW4.8 kmh NW 7.0 mph11.3 kmh 30.12 in1020.0 mb 0.00 in0.0 mm 0.00 in0.0 mm 0.00 in0.0 mm
08:40 AM 48.4°F9.1°C -52.2°F-46.8°C 0% 3.0 mph NW4.8 kmh NW 9.0 mph14.5 kmh 30.12 in1020.0 mb 0.00 in0.0 mm 0.00 in0.0 mm 0.00 in0.0 mm
08:45 AM 48.9°F9.4°C 9.5°F-12.5°C 20% 4.0 mph NW6.4 kmh NW 10.0 mph16.1 kmh 30.13 in1020.3 mb 0.00 in0.0 mm 0.00 in0.0 mm 0.00 in0.0 mm
08:50 AM 49.6°F9.8°C 22.3°F-5.4°C 34% 4.0 mph NW6.4 kmh NW 10.0 mph16.1 kmh 30.13 in1020.3 mb 0.00 in0.0 mm 0.00 in0.0 mm 0.00 in0.0 mm
08:55 AM 50.4°F10.2°C 36.6°F2.6°C 59% 5.0 mph NW8.0 kmh NW 10.0 mph16.1 kmh 30.13 in1020.3 mb 0.00 in0.0 mm 0.00 in0.0 mm 0.00 in0.0 mm
09:00 AM 50.9°F10.5°C 39.1°F3.9°C 64% 5.0 mph NNW8.0 kmh NNW 10.0 mph16.1 kmh 30.13 in1020.3 mb 0.00 in0.0 mm 0.00 in0.0 mm 0.00 in0.0 mm
09:05 AM 51.2°F10.7°C 41.4°F5.2°C 69% 5.0 mph NNW8.0 kmh NNW 9.0 mph14.5 kmh 30.13 in1020.3 mb 0.00 in0.0 mm 0.00 in0.0 mm 0.00 in0.0 mm
09:10 AM 51.6°F10.9°C 42.1°F5.6°C 70% 5.0 mph NW8.0 kmh NW 13.0 mph20.9 kmh 30.13 in1020.3 mb 0.00 in0.0 mm 0.00 in0.0 mm 0.00 in0.0 mm
09:15 AM 52.1°F11.2°C 42.2°F5.7°C 69% 6.0 mph NNW9.7 kmh NNW 13.0 mph20.9 kmh 30.13 in1020.3 mb 0.00 in0.0 mm 0.00 in0.0 mm 0.00 in0.0 mm
09:20 AM 52.4°F11.3°C 42.1°F5.6°C 68% 6.0 mph NNW9.7 kmh NNW 13.0 mph20.9 kmh 30.13 in1020.3 mb 0.00 in0.0 mm 0.00 in0.0 mm 0.00 in0.0 mm
09:25 AM 52.8°F11.6°C 41.7°F5.4°C 66% 6.0 mph NNW9.7 kmh NNW 13.0 mph20.9 kmh 30.14 in1020.7 mb 0.00 in0.0 mm 0.00 in0.0 mm 0.00 in0.0 mm
09:30 AM 53.1°F11.7°C 41.6°F5.3°C 65% 7.0 mph NNW11.3 kmh NNW 14.0 mph22.5 kmh 30.14 in1020.7 mb 0.00 in0.0 mm 0.00 in0.0 mm 0.00 in0.0 mm
09:35 AM 53.4°F11.9°C 41.1°F5.1°C 63% 6.0 mph NNW9.7 kmh NNW 14.0 mph22.5 kmh 30.14 in1020.7 mb 0.00 in0.0 mm 0.00 in0.0 mm 0.00 in0.0 mm
09:40 AM 53.9°F12.2°C 42.0°F5.6°C 64% 6.0 mph NNW9.7 kmh NNW 14.0 mph22.5 kmh 30.14 in1020.7 mb 0.00 in0.0 mm 0.00 in0.0 mm 0.00 in0.0 mm
09:45 AM 54.2°F12.3°C 41.0°F5.0°C 61% 6.0 mph NNW9.7 kmh NNW 13.0 mph20.9 kmh 30.15 in1021.0 mb 0.00 in0.0 mm 0.00 in0.0 mm 0.00 in0.0 mm
09:50 AM 54.6°F12.6°C 41.0°F5.0°C 60% 6.0 mph NNW9.7 kmh NNW 13.0 mph20.9 kmh 30.15 in1021.0 mb 0.00 in0.0 mm 0.00 in0.0 mm 0.00 in0.0 mm
09:55 AM 55.0°F12.8°C 40.9°F4.9°C 59% 6.0 mph NNW9.7 kmh NNW 12.0 mph19.3 kmh 30.14 in1020.7 mb 0.00 in0.0 mm 0.00 in0.0 mm 0.00 in0.0 mm
10:00 AM 55.3°F12.9°C 41.2°F5.1°C 59% 6.0 mph NNW9.7 kmh NNW 12.0 mph19.3 kmh 30.15 in1021.0 mb 0.00 in0.0 mm 0.00 in0.0 mm 0.00 in0.0 mm
10:05 AM 55.8°F13.2°C 41.2°F5.1°C 58% 6.0 mph NNW9.7 kmh NNW 11.0 mph17.7 kmh 30.14 in1020.7 mb 0.00 in0.0 mm 0.00 in0.0 mm 0.00 in0.0 mm
10:10 AM 56.3°F13.5°C 41.7°F5.4°C 58% 5.0 mph NNW8.0 kmh NNW 10.0 mph16.1 kmh 30.14 in1020.7 mb 0.00 in0.0 mm 0.00 in0.0 mm 0.00 in0.0 mm
10:15 AM 56.9°F13.8°C 41.4°F5.2°C 56% 5.0 mph NNW8.0 kmh NNW 10.0 mph16.1 kmh 30.14 in1020.7 mb 0.00 in0.0 mm 0.00 in0.0 mm 0.00 in0.0 mm
10:20 AM 57.2°F14.0°C 41.2°F5.1°C 55% 5.0 mph NNW8.0 kmh NNW 10.0 mph16.1 kmh 30.14 in1020.7 mb 0.00 in0.0 mm 0.00 in0.0 mm 0.00 in0.0 mm
10:25 AM 57.6°F14.2°C 41.5°F5.3°C 55% 6.0 mph NNW9.7 kmh NNW 11.0 mph17.7 kmh 30.14 in1020.7 mb 0.00 in0.0 mm 0.00 in0.0 mm 0.00 in0.0 mm
10:30 AM 58.0°F14.4°C 41.0°F5.0°C 53% 6.0 mph NNW9.7 kmh NNW 12.0 mph19.3 kmh 30.14 in1020.7 mb 0.00 in0.0 mm 0.00 in0.0 mm 0.00 in0.0 mm
10:35 AM 57.8°F14.3°C 40.3°F4.6°C 52% 6.0 mph NNW9.7 kmh NNW 12.0 mph19.3 kmh 30.14 in1020.7 mb 0.00 in0.0 mm 0.00 in0.0 mm 0.00 in0.0 mm
10:40 AM 58.0°F14.4°C 40.0°F4.4°C 51% 7.0 mph NNW11.3 kmh NNW 12.0 mph19.3 kmh 30.14 in1020.7 mb 0.00 in0.0 mm 0.00 in0.0 mm 0.00 in0.0 mm
10:45 AM 58.2°F14.6°C 40.1°F4.5°C 51% 7.0 mph NNW11.3 kmh NNW 12.0 mph19.3 kmh 30.14 in1020.7 mb 0.00 in0.0 mm 0.00 in0.0 mm 0.00 in0.0 mm
10:50 AM 58.5°F14.7°C 39.9°F4.4°C 50% 7.0 mph N11.3 kmh N 14.0 mph22.5 kmh 30.14 in1020.7 mb 0.00 in0.0 mm 0.00 in0.0 mm 0.00 in0.0 mm
10:55 AM 59.3°F15.2°C 41.2°F5.1°C 51% 5.0 mph N8.0 kmh N 14.0 mph22.5 kmh 30.14 in1020.7 mb 0.00 in0.0 mm 0.00 in0.0 mm 0.00 in0.0 mm
11:00 AM 60.0°F15.6°C 41.3°F5.2°C 50% 4.0 mph NNW6.4 kmh NNW 11.0 mph17.7 kmh 30.14 in1020.7 mb 0.00 in0.0 mm 0.00 in0.0 mm 0.00 in0.0 mm
11:05 AM 60.3°F15.7°C 41.0°F5.0°C 49% 5.0 mph NNW8.0 kmh NNW 11.0 mph17.7 kmh 30.14 in1020.7 mb 0.00 in0.0 mm 0.00 in0.0 mm 0.00 in0.0 mm
11:10 AM 60.6°F15.9°C 41.3°F5.2°C 49% 6.0 mph NNW9.7 kmh NNW 11.0 mph17.7 kmh 30.14 in1020.7 mb 0.00 in0.0 mm 0.00 in0.0 mm 0.00 in0.0 mm
11:15 AM 60.9°F16.1°C 40.5°F4.7°C 47% 6.0 mph NNW9.7 kmh NNW 12.0 mph19.3 kmh 30.15 in1021.0 mb 0.00 in0.0 mm 0.00 in0.0 mm 0.00 in0.0 mm
11:20 AM 60.9°F16.1°C 40.0°F4.4°C 46% 7.0 mph NNW11.3 kmh NNW 14.0 mph22.5 kmh 30.14 in1020.7 mb 0.00 in0.0 mm 0.00 in0.0 mm 0.00 in0.0 mm
11:25 AM 60.8°F16.0°C 39.9°F4.4°C 46% 6.0 mph NNW9.7 kmh NNW 14.0 mph22.5 kmh 30.14 in1020.7 mb 0.00 in0.0 mm 0.00 in0.0 mm 0.00 in0.0 mm
11:30 AM 61.2°F16.2°C 40.8°F4.9°C 47% 5.0 mph NNW8.0 kmh NNW 10.0 mph16.1 kmh 30.14 in1020.7 mb 0.00 in0.0 mm 0.00 in0.0 mm 0.00 in0.0 mm
11:35 AM 61.4°F16.3°C 39.9°F4.4°C 45% 6.0 mph NNW9.7 kmh NNW 11.0 mph17.7 kmh 30.14 in1020.7 mb 0.00 in0.0 mm 0.00 in0.0 mm 0.00 in0.0 mm
11:40 AM 62.0°F16.7°C 41.0°F5.0°C 46% 6.0 mph N9.7 kmh N 11.0 mph17.7 kmh 30.14 in1020.7 mb 0.00 in0.0 mm 0.00 in0.0 mm 0.00 in0.0 mm
11:45 AM 62.6°F17.0°C 40.9°F4.9°C 45% 5.0 mph N8.0 kmh N 9.0 mph14.5 kmh 30.14 in1020.7 mb 0.00 in0.0 mm 0.00 in0.0 mm 0.00 in0.0 mm
11:50 AM 62.7°F17.1°C 40.5°F4.7°C 44% 6.0 mph NNW9.7 kmh NNW 16.0 mph25.7 kmh 30.14 in1020.7 mb 0.00 in0.0 mm 0.00 in0.0 mm 0.00 in0.0 mm
11:55 AM 62.3°F16.8°C 40.1°F4.5°C 44% 7.0 mph NW11.3 kmh NW 16.0 mph25.7 kmh 30.14 in1020.7 mb 0.00 in0.0 mm 0.00 in0.0 mm 0.00 in0.0 mm
12:00 PM 62.8°F17.1°C 40.5°F4.7°C 44% 6.0 mph NW9.7 kmh NW 13.0 mph20.9 kmh 30.14 in1020.7 mb 0.00 in0.0 mm 0.00 in0.0 mm 0.00 in0.0 mm
12:05 PM 63.0°F17.2°C 40.7°F4.8°C 44% 6.0 mph NW9.7 kmh NW 13.0 mph20.9 kmh 30.14 in1020.7 mb 0.00 in0.0 mm 0.00 in0.0 mm 0.00 in0.0 mm
12:10 PM 63.1°F17.3°C 40.2°F4.6°C 43% 6.0 mph NW9.7 kmh NW 13.0 mph20.9 kmh 30.14 in1020.7 mb 0.00 in0.0 mm 0.00 in0.0 mm 0.00 in0.0 mm
12:15 PM 63.3°F17.4°C 40.4°F4.7°C 43% 5.0 mph NW8.0 kmh NW 10.0 mph16.1 kmh 30.14 in1020.7 mb 0.00 in0.0 mm 0.00 in0.0 mm 0.00 in0.0 mm
12:20 PM 63.5°F17.5°C 40.6°F4.8°C 43% 6.0 mph NW9.7 kmh NW 11.0 mph17.7 kmh 30.13 in1020.3 mb 0.00 in0.0 mm 0.00 in0.0 mm 0.00 in0.0 mm
12:25 PM 63.7°F17.6°C 39.5°F4.2°C 41% 7.0 mph NW11.3 kmh NW 14.0 mph22.5 kmh 30.13 in1020.3 mb 0.00 in0.0 mm 0.00 in0.0 mm 0.00 in0.0 mm
12:30 PM 63.8°F17.7°C 39.6°F4.2°C 41% 7.0 mph NW11.3 kmh NW 14.0 mph22.5 kmh 30.13 in1020.3 mb 0.00 in0.0 mm 0.00 in0.0 mm 0.00 in0.0 mm
12:35 PM 63.9°F17.7°C 40.3°F4.6°C 42% 6.0 mph NW9.7 kmh NW 11.0 mph17.7 kmh 30.13 in1020.3 mb 0.00 in0.0 mm 0.00 in0.0 mm 0.00 in0.0 mm
12:40 PM 64.0°F17.8°C 40.4°F4.7°C 42% 5.0 mph NW8.0 kmh NW 11.0 mph17.7 kmh 30.13 in1020.3 mb 0.00 in0.0 mm 0.00 in0.0 mm 0.00 in0.0 mm
12:45 PM 64.3°F17.9°C 40.7°F4.8°C 42% 5.0 mph NW8.0 kmh NW 13.0 mph20.9 kmh 30.13 in1020.3 mb 0.00 in0.0 mm 0.00 in0.0 mm 0.00 in0.0 mm
12:50 PM 64.7°F18.2°C 40.4°F4.7°C 41% 6.0 mph NW9.7 kmh NW 13.0 mph20.9 kmh 30.13 in1020.3 mb 0.00 in0.0 mm 0.00 in0.0 mm 0.00 in0.0 mm
12:55 PM 65.1°F18.4°C 41.4°F5.2°C 42% 5.0 mph NW8.0 kmh NW 12.0 mph19.3 kmh 30.13 in1020.3 mb 0.00 in0.0 mm 0.00 in0.0 mm 0.00 in0.0 mm
01:00 PM 65.7°F18.7°C 40.7°F4.8°C 40% 3.0 mph NW4.8 kmh NW 9.0 mph14.5 kmh 30.12 in1020.0 mb 0.00 in0.0 mm 0.00 in0.0 mm 0.00 in0.0 mm
01:05 PM 66.3°F19.1°C 41.2°F5.1°C 40% 5.0 mph NW8.0 kmh NW 13.0 mph20.9 kmh 30.12 in1020.0 mb 0.00 in0.0 mm 0.00 in0.0 mm 0.00 in0.0 mm
01:10 PM 66.5°F19.2°C 40.8°F4.9°C 39% 7.0 mph NW11.3 kmh NW 13.0 mph20.9 kmh 30.12 in1020.0 mb 0.00 in0.0 mm 0.00 in0.0 mm 0.00 in0.0 mm
01:15 PM 66.3°F19.1°C 39.9°F4.4°C 38% 7.0 mph NW11.3 kmh NW 13.0 mph20.9 kmh 30.12 in1020.0 mb 0.00 in0.0 mm 0.00 in0.0 mm 0.00 in0.0 mm
01:20 PM 66.7°F19.3°C 40.3°F4.6°C 38% 6.0 mph NW9.7 kmh NW 13.0 mph20.9 kmh 30.11 in1019.6 mb 0.00 in0.0 mm 0.00 in0.0 mm 0.00 in0.0 mm
01:25 PM 66.8°F19.3°C 39.7°F4.3°C 37% 6.0 mph NW9.7 kmh NW 13.0 mph20.9 kmh 30.11 in1019.6 mb 0.00 in0.0 mm 0.00 in0.0 mm 0.00 in0.0 mm
01:30 PM 66.8°F19.3°C 39.7°F4.3°C 37% 7.0 mph NW11.3 kmh NW 13.0 mph20.9 kmh 30.11 in1019.6 mb 0.00 in0.0 mm 0.00 in0.0 mm 0.00 in0.0 mm
01:35 PM 67.3°F19.6°C 40.1°F4.5°C 37% 5.0 mph NW8.0 kmh NW 11.0 mph17.7 kmh 30.11 in1019.6 mb 0.00 in0.0 mm 0.00 in0.0 mm 0.00 in0.0 mm
01:40 PM 67.8°F19.9°C 40.6°F4.8°C 37% 5.0 mph NW8.0 kmh NW 12.0 mph19.3 kmh 30.10 in1019.3 mb 0.00 in0.0 mm 0.00 in0.0 mm 0.00 in0.0 mm
01:45 PM 67.9°F19.9°C 39.2°F4.0°C 35% 6.0 mph NW9.7 kmh NW 12.0 mph19.3 kmh 30.10 in1019.3 mb 0.00 in0.0 mm 0.00 in0.0 mm 0.00 in0.0 mm
01:50 PM 68.1°F20.1°C 39.4°F4.1°C 35% 6.0 mph NW9.7 kmh NW 11.0 mph17.7 kmh 30.10 in1019.3 mb 0.00 in0.0 mm 0.00 in0.0 mm 0.00 in0.0 mm
01:55 PM 68.1°F20.1°C 37.9°F3.3°C 33% 7.0 mph NW11.3 kmh NW 13.0 mph20.9 kmh 30.09 in1019.0 mb 0.00 in0.0 mm 0.00 in0.0 mm 0.00 in0.0 mm
02:00 PM 68.0°F20.0°C 37.8°F3.2°C 33% 7.0 mph NW11.3 kmh NW 14.0 mph22.5 kmh 30.09 in1019.0 mb 0.00 in0.0 mm 0.00 in0.0 mm 0.00 in0.0 mm
02:05 PM 68.0°F20.0°C 38.6°F3.7°C 34% 7.0 mph NW11.3 kmh NW 14.0 mph22.5 kmh 30.09 in1019.0 mb 0.00 in0.0 mm 0.00 in0.0 mm 0.00 in0.0 mm
02:10 PM 67.9°F19.9°C 38.5°F3.6°C 34% 7.0 mph WNW11.3 kmh WNW 16.0 mph25.7 kmh 30.08 in1018.6 mb 0.00 in0.0 mm 0.00 in0.0 mm 0.00 in0.0 mm
02:15 PM 68.0°F20.0°C 39.3°F4.1°C 35% 7.0 mph NW11.3 kmh NW 16.0 mph25.7 kmh 30.08 in1018.6 mb 0.00 in0.0 mm 0.00 in0.0 mm 0.00 in0.0 mm
02:20 PM 68.1°F20.1°C 38.7°F3.7°C 34% 6.0 mph NW9.7 kmh NW 16.0 mph25.7 kmh 30.08 in1018.6 mb 0.00 in0.0 mm 0.00 in0.0 mm 0.00 in0.0 mm
02:25 PM 69.0°F20.6°C 39.4°F4.1°C 34% 6.0 mph NW9.7 kmh NW 14.0 mph22.5 kmh 30.08 in1018.6 mb 0.00 in0.0 mm 0.00 in0.0 mm 0.00 in0.0 mm
02:30 PM 69.3°F20.7°C 37.3°F2.9°C 31% 7.0 mph NW11.3 kmh NW 14.0 mph22.5 kmh 30.08 in1018.6 mb 0.00 in0.0 mm 0.00 in0.0 mm 0.00 in0.0 mm
02:35 PM 69.4°F20.8°C 36.6°F2.6°C 30% 7.0 mph NW11.3 kmh NW 17.0 mph27.4 kmh 30.08 in1018.6 mb 0.00 in0.0 mm 0.00 in0.0 mm 0.00 in0.0 mm
02:40 PM 69.5°F20.8°C 37.5°F3.1°C 31% 7.0 mph NW11.3 kmh NW 17.0 mph27.4 kmh 30.08 in1018.6 mb 0.00 in0.0 mm 0.00 in0.0 mm 0.00 in0.0 mm
02:45 PM 69.6°F20.9°C 35.0°F1.7°C 28% 7.0 mph NW11.3 kmh NW 13.0 mph20.9 kmh 30.07 in1018.3 mb 0.00 in0.0 mm 0.00 in0.0 mm 0.00 in0.0 mm
02:50 PM 69.5°F20.8°C 37.5°F3.1°C 31% 7.0 mph NW11.3 kmh NW 14.0 mph22.5 kmh 30.07 in1018.3 mb 0.00 in0.0 mm 0.00 in0.0 mm 0.00 in0.0 mm
02:55 PM 69.5°F20.8°C 35.8°F2.1°C 29% 7.0 mph NW11.3 kmh NW 17.0 mph27.4 kmh 30.07 in1018.3 mb 0.00 in0.0 mm 0.00 in0.0 mm 0.00 in0.0 mm
03:00 PM 69.5°F20.8°C 34.9°F1.6°C 28% 7.0 mph NW11.3 kmh NW 18.0 mph29.0 kmh 30.07 in1018.3 mb 0.00 in0.0 mm 0.00 in0.0 mm 0.00 in0.0 mm
03:05 PM 69.7°F20.9°C 34.2°F1.2°C 27% 8.0 mph NW12.9 kmh NW 18.0 mph29.0 kmh 30.07 in1018.3 mb 0.00 in0.0 mm 0.00 in0.0 mm 0.00 in0.0 mm
03:10 PM 69.7°F20.9°C 34.2°F1.2°C 27% 7.0 mph NW11.3 kmh NW 17.0 mph27.4 kmh 30.07 in1018.3 mb 0.00 in0.0 mm 0.00 in0.0 mm 0.00 in0.0 mm
03:15 PM 69.7°F20.9°C 33.3°F0.7°C 26% 7.0 mph NW11.3 kmh NW 17.0 mph27.4 kmh 30.06 in1017.9 mb 0.00 in0.0 mm 0.00 in0.0 mm 0.00 in0.0 mm
03:20 PM 70.1°F21.2°C 33.6°F0.9°C 26% 7.0 mph NW11.3 kmh NW 16.0 mph25.7 kmh 30.06 in1017.9 mb 0.00 in0.0 mm 0.00 in0.0 mm 0.00 in0.0 mm
03:25 PM 69.9°F21.1°C 33.4°F0.8°C 26% 8.0 mph NW12.9 kmh NW 16.0 mph25.7 kmh 30.06 in1017.9 mb 0.00 in0.0 mm 0.00 in0.0 mm 0.00 in0.0 mm
03:30 PM 69.9°F21.1°C 30.4°F-0.9°C 23% 9.0 mph NW14.5 kmh NW 16.0 mph25.7 kmh 30.05 in1017.6 mb 0.00 in0.0 mm 0.00 in0.0 mm 0.00 in0.0 mm
03:35 PM 70.2°F21.2°C 33.7°F0.9°C 26% 8.0 mph NNW12.9 kmh NNW 18.0 mph29.0 kmh 30.06 in1017.9 mb 0.00 in0.0 mm 0.00 in0.0 mm 0.00 in0.0 mm
03:40 PM 70.6°F21.4°C 32.0°F0.0°C 24% 7.0 mph NW11.3 kmh NW 18.0 mph29.0 kmh 30.06 in1017.9 mb 0.00 in0.0 mm 0.00 in0.0 mm 0.00 in0.0 mm
03:45 PM 70.8°F21.6°C 33.2°F0.7°C 25% 7.0 mph NW11.3 kmh NW 14.0 mph22.5 kmh 30.06 in1017.9 mb 0.00 in0.0 mm 0.00 in0.0 mm 0.00 in0.0 mm
03:50 PM 70.3°F21.3°C 28.5°F-1.9°C 21% 7.0 mph NW11.3 kmh NW 16.0 mph25.7 kmh 30.06 in1017.9 mb 0.00 in0.0 mm 0.00 in0.0 mm 0.00 in0.0 mm
03:55 PM 69.7°F20.9°C 29.1°F-1.6°C 22% 9.0 mph NW14.5 kmh NW 18.0 mph29.0 kmh 30.06 in1017.9 mb 0.00 in0.0 mm 0.00 in0.0 mm 0.00 in0.0 mm
04:00 PM 69.8°F21.0°C 29.2°F-1.6°C 22% 9.0 mph NW14.5 kmh NW 18.0 mph29.0 kmh 30.06 in1017.9 mb 0.00 in0.0 mm 0.00 in0.0 mm 0.00 in0.0 mm
04:05 PM 69.9°F21.1°C 27.0°F-2.8°C 20% 9.0 mph NW14.5 kmh NW 18.0 mph29.0 kmh 30.06 in1017.9 mb 0.00 in0.0 mm 0.00 in0.0 mm 0.00 in0.0 mm
04:10 PM 70.2°F21.2°C 27.2°F-2.7°C 20% 7.0 mph NW11.3 kmh NW 16.0 mph25.7 kmh 30.06 in1017.9 mb 0.00 in0.0 mm 0.00 in0.0 mm 0.00 in0.0 mm
04:15 PM 69.9°F21.1°C 25.7°F-3.5°C 19% 7.0 mph NW11.3 kmh NW 13.0 mph20.9 kmh 30.05 in1017.6 mb 0.00 in0.0 mm 0.00 in0.0 mm 0.00 in0.0 mm
04:20 PM 70.2°F21.2°C 28.4°F-2.0°C 21% 7.0 mph NW11.3 kmh NW 14.0 mph22.5 kmh 30.06 in1017.9 mb 0.00 in0.0 mm 0.00 in0.0 mm 0.00 in0.0 mm
04:25 PM 70.4°F21.3°C 28.6°F-1.9°C 21% 6.0 mph WNW9.7 kmh WNW 14.0 mph22.5 kmh 30.05 in1017.6 mb 0.00 in0.0 mm 0.00 in0.0 mm 0.00 in0.0 mm
04:30 PM 70.4°F21.3°C 28.6°F-1.9°C 21% 6.0 mph WNW9.7 kmh WNW 15.0 mph24.1 kmh 30.06 in1017.9 mb 0.00 in0.0 mm 0.00 in0.0 mm 0.00 in0.0 mm
04:35 PM 70.0°F21.1°C 28.2°F-2.1°C 21% 8.0 mph NW12.9 kmh NW 15.0 mph24.1 kmh 30.06 in1017.9 mb 0.00 in0.0 mm 0.00 in0.0 mm 0.00 in0.0 mm
04:40 PM 69.9°F21.1°C 27.0°F-2.8°C 20% 8.0 mph NW12.9 kmh NW 15.0 mph24.1 kmh 30.06 in1017.9 mb 0.00 in0.0 mm 0.00 in0.0 mm 0.00 in0.0 mm
04:45 PM 70.2°F21.2°C 28.4°F-2.0°C 21% 7.0 mph NW11.3 kmh NW 14.0 mph22.5 kmh 30.05 in1017.6 mb 0.00 in0.0 mm 0.00 in0.0 mm 0.00 in0.0 mm
04:50 PM 69.6°F20.9°C 26.7°F-2.9°C 20% 7.0 mph NW11.3 kmh NW 14.0 mph22.5 kmh 30.06 in1017.9 mb 0.00 in0.0 mm 0.00 in0.0 mm 0.00 in0.0 mm
04:55 PM 69.4°F20.8°C 26.6°F-3.0°C 20% 7.0 mph WNW11.3 kmh WNW 14.0 mph22.5 kmh 30.06 in1017.9 mb 0.00 in0.0 mm 0.00 in0.0 mm 0.00 in0.0 mm
05:00 PM 69.7°F20.9°C 28.0°F-2.2°C 21% 6.0 mph WNW9.7 kmh WNW 14.0 mph22.5 kmh 30.06 in1017.9 mb 0.00 in0.0 mm 0.00 in0.0 mm 0.00 in0.0 mm
05:05 PM 70.1°F21.2°C 27.1°F-2.7°C 20% 6.0 mph WNW9.7 kmh WNW 12.0 mph19.3 kmh 30.06 in1017.9 mb 0.00 in0.0 mm 0.00 in0.0 mm 0.00 in0.0 mm
05:10 PM 69.8°F21.0°C 24.3°F-4.3°C 18% 7.0 mph NW11.3 kmh NW 17.0 mph27.4 kmh 30.06 in1017.9 mb 0.00 in0.0 mm 0.00 in0.0 mm 0.00 in0.0 mm
05:15 PM 69.9°F21.1°C 28.2°F-2.1°C 21% 7.0 mph NW11.3 kmh NW 17.0 mph27.4 kmh 30.06 in1017.9 mb 0.00 in0.0 mm 0.00 in0.0 mm 0.00 in0.0 mm
05:20 PM 70.1°F21.2°C 28.3°F-2.1°C 21% 6.0 mph NW9.7 kmh NW 12.0 mph19.3 kmh 30.06 in1017.9 mb 0.00 in0.0 mm 0.00 in0.0 mm 0.00 in0.0 mm
05:25 PM 69.9°F21.1°C 27.0°F-2.8°C 20% 6.0 mph WNW9.7 kmh WNW 13.0 mph20.9 kmh 30.06 in1017.9 mb 0.00 in0.0 mm 0.00 in0.0 mm 0.00 in0.0 mm
05:30 PM 69.2°F20.7°C 27.6°F-2.4°C 21% 6.0 mph W9.7 kmh W 14.0 mph22.5 kmh 30.06 in1017.9 mb 0.00 in0.0 mm 0.00 in0.0 mm 0.00 in0.0 mm
05:35 PM 69.2°F20.7°C 26.4°F-3.1°C 20% 6.0 mph W9.7 kmh W 14.0 mph22.5 kmh 30.06 in1017.9 mb 0.00 in0.0 mm 0.00 in0.0 mm 0.00 in0.0 mm
05:40 PM 69.0°F20.6°C 25.0°F-3.9°C 19% 6.0 mph WNW9.7 kmh WNW 12.0 mph19.3 kmh 30.06 in1017.9 mb 0.00 in0.0 mm 0.00 in0.0 mm 0.00 in0.0 mm
05:45 PM 68.8°F20.4°C 26.1°F-3.3°C 20% 6.0 mph WNW9.7 kmh WNW 13.0 mph20.9 kmh 30.06 in1017.9 mb 0.00 in0.0 mm 0.00 in0.0 mm 0.00 in0.0 mm
05:50 PM 68.7°F20.4°C 26.0°F-3.3°C 20% 7.0 mph NW11.3 kmh NW 13.0 mph20.9 kmh 30.06 in1017.9 mb 0.00 in0.0 mm 0.00 in0.0 mm 0.00 in0.0 mm
05:55 PM 68.8°F20.4°C 26.1°F-3.3°C 20% 6.0 mph NW9.7 kmh NW 13.0 mph20.9 kmh 30.06 in1017.9 mb 0.00 in0.0 mm 0.00 in0.0 mm 0.00 in0.0 mm
06:00 PM 68.6°F20.3°C 25.9°F-3.4°C 20% 6.0 mph NW9.7 kmh NW 11.0 mph17.7 kmh 30.06 in1017.9 mb 0.00 in0.0 mm 0.00 in0.0 mm 0.00 in0.0 mm
06:05 PM 68.5°F20.3°C 25.8°F-3.4°C 20% 5.0 mph WNW8.0 kmh WNW 11.0 mph17.7 kmh 30.06 in1017.9 mb 0.00 in0.0 mm 0.00 in0.0 mm 0.00 in0.0 mm
06:10 PM 68.4°F20.2°C 25.7°F-3.5°C 20% 5.0 mph WNW8.0 kmh WNW 12.0 mph19.3 kmh 30.06 in1017.9 mb 0.00 in0.0 mm 0.00 in0.0 mm 0.00 in0.0 mm
06:15 PM 67.8°F19.9°C 25.2°F-3.8°C 20% 6.0 mph WNW9.7 kmh WNW 12.0 mph19.3 kmh 30.06 in1017.9 mb 0.00 in0.0 mm 0.00 in0.0 mm 0.00 in0.0 mm
06:20 PM 67.4°F19.7°C 27.2°F-2.7°C 22% 5.0 mph WNW8.0 kmh WNW 12.0 mph19.3 kmh 30.06 in1017.9 mb 0.00 in0.0 mm 0.00 in0.0 mm 0.00 in0.0 mm
06:25 PM 67.3°F19.6°C 27.1°F-2.7°C 22% 4.0 mph WNW6.4 kmh WNW 10.0 mph16.1 kmh 30.07 in1018.3 mb 0.00 in0.0 mm 0.00 in0.0 mm 0.00 in0.0 mm
06:30 PM 66.6°F19.2°C 26.5°F-3.1°C 22% 5.0 mph WNW8.0 kmh WNW 10.0 mph16.1 kmh 30.06 in1017.9 mb 0.00 in0.0 mm 0.00 in0.0 mm 0.00 in0.0 mm
06:35 PM 66.0°F18.9°C 26.0°F-3.3°C 22% 5.0 mph W8.0 kmh W 10.0 mph16.1 kmh 30.07 in1018.3 mb 0.00 in0.0 mm 0.00 in0.0 mm 0.00 in0.0 mm
06:40 PM 65.6°F18.7°C 25.7°F-3.5°C 22% 5.0 mph W8.0 kmh W 10.0 mph16.1 kmh 30.07 in1018.3 mb 0.00 in0.0 mm 0.00 in0.0 mm 0.00 in0.0 mm
06:45 PM 65.1°F18.4°C 25.3°F-3.7°C 22% 6.0 mph WNW9.7 kmh WNW 12.0 mph19.3 kmh 30.07 in1018.3 mb 0.00 in0.0 mm 0.00 in0.0 mm 0.00 in0.0 mm
06:50 PM 64.6°F18.1°C 27.0°F-2.8°C 24% 5.0 mph WNW8.0 kmh WNW 12.0 mph19.3 kmh 30.07 in1018.3 mb 0.00 in0.0 mm 0.00 in0.0 mm 0.00 in0.0 mm
06:55 PM 64.2°F17.9°C 27.6°F-2.4°C 25% 4.0 mph W6.4 kmh W 10.0 mph16.1 kmh 30.07 in1018.3 mb 0.00 in0.0 mm 0.00 in0.0 mm 0.00 in0.0 mm
07:00 PM 63.7°F17.6°C 27.2°F-2.7°C 25% 4.0 mph WNW6.4 kmh WNW 10.0 mph16.1 kmh 30.07 in1018.3 mb 0.00 in0.0 mm 0.00 in0.0 mm 0.00 in0.0 mm
07:05 PM 63.2°F17.3°C 27.7°F-2.4°C 26% 4.0 mph W6.4 kmh W 13.0 mph20.9 kmh 30.07 in1018.3 mb 0.00 in0.0 mm 0.00 in0.0 mm 0.00 in0.0 mm
07:10 PM 62.7°F17.1°C 28.2°F-2.1°C 27% 4.0 mph W6.4 kmh W 13.0 mph20.9 kmh 30.07 in1018.3 mb 0.00 in0.0 mm 0.00 in0.0 mm 0.00 in0.0 mm
07:15 PM 62.2°F16.8°C 27.8°F-2.3°C 27% 4.0 mph WNW6.4 kmh WNW 8.0 mph12.9 kmh 30.07 in1018.3 mb 0.00 in0.0 mm 0.00 in0.0 mm 0.00 in0.0 mm
07:20 PM 61.7°F16.5°C 29.1°F-1.6°C 29% 5.0 mph WNW8.0 kmh WNW 9.0 mph14.5 kmh 30.07 in1018.3 mb 0.00 in0.0 mm 0.00 in0.0 mm 0.00 in0.0 mm
07:25 PM 61.3°F16.3°C 28.7°F-1.8°C 29% 4.0 mph WNW6.4 kmh WNW 9.0 mph14.5 kmh 30.07 in1018.3 mb 0.00 in0.0 mm 0.00 in0.0 mm 0.00 in0.0 mm
07:30 PM 60.9°F16.1°C 29.2°F-1.6°C 30% 3.0 mph WNW4.8 kmh WNW 8.0 mph12.9 kmh 30.08 in1018.6 mb 0.00 in0.0 mm 0.00 in0.0 mm 0.00 in0.0 mm
07:35 PM 60.4°F15.8°C 30.4°F-0.9°C 32% 3.0 mph W4.8 kmh W 7.0 mph11.3 kmh 30.08 in1018.6 mb 0.00 in0.0 mm 0.00 in0.0 mm 0.00 in0.0 mm
07:40 PM 59.9°F15.5°C 30.7°F-0.7°C 33% 3.0 mph W4.8 kmh W 10.0 mph16.1 kmh 30.08 in1018.6 mb 0.00 in0.0 mm 0.00 in0.0 mm 0.00 in0.0 mm
07:45 PM 59.6°F15.3°C 31.2°F-0.4°C 34% 4.0 mph W6.4 kmh W 10.0 mph16.1 kmh 30.08 in1018.6 mb 0.00 in0.0 mm 0.00 in0.0 mm 0.00 in0.0 mm
07:50 PM 59.3°F15.2°C 32.3°F0.2°C 36% 4.0 mph W6.4 kmh W 10.0 mph16.1 kmh 30.09 in1019.0 mb 0.00 in0.0 mm 0.00 in0.0 mm 0.00 in0.0 mm
07:55 PM 58.9°F14.9°C 33.3°F0.7°C 38% 3.0 mph W4.8 kmh W 7.0 mph11.3 kmh 30.09 in1019.0 mb 0.00 in0.0 mm 0.00 in0.0 mm 0.00 in0.0 mm
08:00 PM 58.5°F14.7°C 34.2°F1.2°C 40% 3.0 mph WNW4.8 kmh WNW 9.0 mph14.5 kmh 30.09 in1019.0 mb 0.00 in0.0 mm 0.00 in0.0 mm 0.00 in0.0 mm
08:05 PM 58.1°F14.5°C 35.1°F1.7°C 42% 4.0 mph WNW6.4 kmh WNW 9.0 mph14.5 kmh 30.09 in1019.0 mb 0.00 in0.0 mm 0.00 in0.0 mm 0.00 in0.0 mm
08:10 PM 57.8°F14.3°C 36.0°F2.2°C 44% 4.0 mph WNW6.4 kmh WNW 10.0 mph16.1 kmh 30.09 in1019.0 mb 0.00 in0.0 mm 0.00 in0.0 mm 0.00 in0.0 mm
08:15 PM 57.6°F14.2°C 36.4°F2.4°C 45% 4.0 mph WNW6.4 kmh WNW 10.0 mph16.1 kmh 30.10 in1019.3 mb 0.00 in0.0 mm 0.00 in0.0 mm 0.00 in0.0 mm
08:20 PM 57.3°F14.1°C 37.2°F2.9°C 47% 4.0 mph WNW6.4 kmh WNW 10.0 mph16.1 kmh 30.10 in1019.3 mb 0.00 in0.0 mm 0.00 in0.0 mm 0.00 in0.0 mm
08:25 PM 57.0°F13.9°C 37.5°F3.1°C 48% 4.0 mph WNW6.4 kmh WNW 8.0 mph12.9 kmh 30.10 in1019.3 mb 0.00 in0.0 mm 0.00 in0.0 mm 0.00 in0.0 mm
08:30 PM 56.6°F13.7°C 38.2°F3.4°C 50% 4.0 mph WNW6.4 kmh WNW 8.0 mph12.9 kmh 30.10 in1019.3 mb 0.00 in0.0 mm 0.00 in0.0 mm 0.00 in0.0 mm
08:35 PM 56.3°F13.5°C 38.4°F3.6°C 51% 4.0 mph WNW6.4 kmh WNW 9.0 mph14.5 kmh 30.10 in1019.3 mb 0.00 in0.0 mm 0.00 in0.0 mm 0.00 in0.0 mm
08:45 PM 55.6°F13.1°C 38.7°F3.7°C 53% 3.0 mph WNW4.8 kmh WNW 7.0 mph11.3 kmh 30.11 in1019.6 mb 0.00 in0.0 mm 0.00 in0.0 mm 0.00 in0.0 mm
08:50 PM 55.3°F12.9°C 39.4°F4.1°C 55% 4.0 mph W6.4 kmh W 11.0 mph17.7 kmh 30.11 in1019.6 mb 0.00 in0.0 mm 0.00 in0.0 mm 0.00 in0.0 mm
08:55 PM 55.1°F12.8°C 39.7°F4.3°C 56% 4.0 mph W6.4 kmh W 11.0 mph17.7 kmh 30.11 in1019.6 mb 0.00 in0.0 mm 0.00 in0.0 mm 0.00 in0.0 mm
09:00 PM 55.0°F12.8°C 40.0°F4.4°C 57% 4.0 mph WNW6.4 kmh WNW 11.0 mph17.7 kmh 30.11 in1019.6 mb 0.00 in0.0 mm 0.00 in0.0 mm 0.00 in0.0 mm
09:05 PM 54.8°F12.7°C 40.3°F4.6°C 58% 4.0 mph WNW6.4 kmh WNW 11.0 mph17.7 kmh 30.12 in1020.0 mb 0.00 in0.0 mm 0.00 in0.0 mm 0.00 in0.0 mm
09:10 PM 54.5°F12.5°C 40.5°F4.7°C 59% 4.0 mph WNW6.4 kmh WNW 9.0 mph14.5 kmh 30.12 in1020.0 mb 0.00 in0.0 mm 0.00 in0.0 mm 0.00 in0.0 mm
09:15 PM 54.2°F12.3°C 40.6°F4.8°C 60% 4.0 mph WNW6.4 kmh WNW 8.0 mph12.9 kmh 30.12 in1020.0 mb 0.00 in0.0 mm 0.00 in0.0 mm 0.00 in0.0 mm
09:20 PM 54.1°F12.3°C 40.9°F4.9°C 61% 4.0 mph WNW6.4 kmh WNW 9.0 mph14.5 kmh 30.12 in1020.0 mb 0.00 in0.0 mm 0.00 in0.0 mm 0.00 in0.0 mm
09:25 PM 54.0°F12.2°C 40.8°F4.9°C 61% 4.0 mph WNW6.4 kmh WNW 12.0 mph19.3 kmh 30.12 in1020.0 mb 0.00 in0.0 mm 0.00 in0.0 mm 0.00 in0.0 mm
09:30 PM 53.7°F12.1°C 41.0°F5.0°C 62% 4.0 mph WNW6.4 kmh WNW 12.0 mph19.3 kmh 30.12 in1020.0 mb 0.00 in0.0 mm 0.00 in0.0 mm 0.00 in0.0 mm
09:35 PM 53.5°F11.9°C 40.8°F4.9°C 62% 4.0 mph WNW6.4 kmh WNW 8.0 mph12.9 kmh 30.12 in1020.0 mb 0.00 in0.0 mm 0.00 in0.0 mm 0.00 in0.0 mm
09:40 PM 53.3°F11.8°C 41.0°F5.0°C 63% 3.0 mph WNW4.8 kmh WNW 7.0 mph11.3 kmh 30.12 in1020.0 mb 0.00 in0.0 mm 0.00 in0.0 mm 0.00 in0.0 mm
09:45 PM 53.1°F11.7°C 41.2°F5.1°C 64% 4.0 mph WNW6.4 kmh WNW 8.0 mph12.9 kmh 30.12 in1020.0 mb 0.00 in0.0 mm 0.00 in0.0 mm 0.00 in0.0 mm
09:50 PM 53.0°F11.7°C 41.1°F5.1°C 64% 3.0 mph WNW4.8 kmh WNW 8.0 mph12.9 kmh 30.13 in1020.3 mb 0.00 in0.0 mm 0.00 in0.0 mm 0.00 in0.0 mm
09:55 PM 52.8°F11.6°C 41.0°F5.0°C 64% 3.0 mph W4.8 kmh W 6.0 mph9.7 kmh 30.13 in1020.3 mb 0.00 in0.0 mm 0.00 in0.0 mm 0.00 in0.0 mm
10:00 PM 52.7°F11.5°C 41.3°F5.2°C 65% 3.0 mph WNW4.8 kmh WNW 6.0 mph9.7 kmh 30.13 in1020.3 mb 0.00 in0.0 mm 0.00 in0.0 mm 0.00 in0.0 mm
10:05 PM 52.6°F11.4°C 41.2°F5.1°C 65% 3.0 mph WNW4.8 kmh WNW 8.0 mph12.9 kmh 30.13 in1020.3 mb 0.00 in0.0 mm 0.00 in0.0 mm 0.00 in0.0 mm
10:10 PM 52.4°F11.3°C 41.0°F5.0°C 65% 3.0 mph WNW4.8 kmh WNW 8.0 mph12.9 kmh 30.13 in1020.3 mb 0.00 in0.0 mm 0.00 in0.0 mm 0.00 in0.0 mm
10:15 PM 52.2°F11.2°C 41.2°F5.1°C 66% 3.0 mph WNW4.8 kmh WNW 6.0 mph9.7 kmh 30.13 in1020.3 mb 0.00 in0.0 mm 0.00 in0.0 mm 0.00 in0.0 mm
10:20 PM 52.1°F11.2°C 41.1°F5.1°C 66% 3.0 mph WNW4.8 kmh WNW 6.0 mph9.7 kmh 30.13 in1020.3 mb 0.00 in0.0 mm 0.00 in0.0 mm 0.00 in0.0 mm
10:25 PM 52.1°F11.2°C 41.1°F5.1°C 66% 3.0 mph WNW4.8 kmh WNW 7.0 mph11.3 kmh 30.13 in1020.3 mb 0.00 in0.0 mm 0.00 in0.0 mm 0.00 in0.0 mm
10:30 PM 52.0°F11.1°C 41.0°F5.0°C 66% 3.0 mph WNW4.8 kmh WNW 8.0 mph12.9 kmh 30.13 in1020.3 mb 0.00 in0.0 mm 0.00 in0.0 mm 0.00 in0.0 mm
10:35 PM 51.8°F11.0°C 41.2°F5.1°C 67% 4.0 mph WNW6.4 kmh WNW 8.0 mph12.9 kmh 30.13 in1020.3 mb 0.00 in0.0 mm 0.00 in0.0 mm 0.00 in0.0 mm
10:40 PM 51.7°F10.9°C 41.1°F5.1°C 67% 3.0 mph WNW4.8 kmh WNW 7.0 mph11.3 kmh 30.13 in1020.3 mb 0.00 in0.0 mm 0.00 in0.0 mm 0.00 in0.0 mm
10:45 PM 51.6°F10.9°C 41.4°F5.2°C 68% 3.0 mph WNW4.8 kmh WNW 7.0 mph11.3 kmh 30.13 in1020.3 mb 0.00 in0.0 mm 0.00 in0.0 mm 0.00 in0.0 mm
10:50 PM 51.5°F10.8°C 41.3°F5.2°C 68% 3.0 mph NW4.8 kmh NW 6.0 mph9.7 kmh 30.13 in1020.3 mb 0.00 in0.0 mm 0.00 in0.0 mm 0.00 in0.0 mm
10:55 PM 51.4°F10.8°C 41.2°F5.1°C 68% 3.0 mph NW4.8 kmh NW 7.0 mph11.3 kmh 30.13 in1020.3 mb 0.00 in0.0 mm 0.00 in0.0 mm 0.00 in0.0 mm
11:00 PM 51.3°F10.7°C 41.1°F5.1°C 68% 3.0 mph WNW4.8 kmh WNW 7.0 mph11.3 kmh 30.13 in1020.3 mb 0.00 in0.0 mm 0.00 in0.0 mm 0.00 in0.0 mm
11:05 PM 51.2°F10.7°C 41.0°F5.0°C 68% 3.0 mph NW4.8 kmh NW 7.0 mph11.3 kmh 30.13 in1020.3 mb 0.00 in0.0 mm 0.00 in0.0 mm 0.00 in0.0 mm
11:10 PM 51.1°F10.6°C 41.3°F5.2°C 69% 3.0 mph WNW4.8 kmh WNW 7.0 mph11.3 kmh 30.14 in1020.7 mb 0.00 in0.0 mm 0.00 in0.0 mm 0.00 in0.0 mm
11:15 PM 51.0°F10.6°C 41.2°F5.1°C 69% 3.0 mph WNW4.8 kmh WNW 6.0 mph9.7 kmh 30.14 in1020.7 mb 0.00 in0.0 mm 0.00 in0.0 mm 0.00 in0.0 mm
11:20 PM 50.9°F10.5°C 41.1°F5.1°C 69% 3.0 mph WNW4.8 kmh WNW 5.0 mph8.0 kmh 30.14 in1020.7 mb 0.00 in0.0 mm 0.00 in0.0 mm 0.00 in0.0 mm
11:25 PM 50.7°F10.4°C 40.9°F4.9°C 69% 3.0 mph WNW4.8 kmh WNW 5.0 mph8.0 kmh 30.14 in1020.7 mb 0.00 in0.0 mm 0.00 in0.0 mm 0.00 in0.0 mm
11:30 PM 50.6°F10.3°C 41.2°F5.1°C 70% 3.0 mph NW4.8 kmh NW 5.0 mph8.0 kmh 30.14 in1020.7 mb 0.00 in0.0 mm 0.00 in0.0 mm 0.00 in0.0 mm
11:35 PM 50.4°F10.2°C 41.0°F5.0°C 70% 2.0 mph NW3.2 kmh NW 4.0 mph6.4 kmh 30.14 in1020.7 mb 0.00 in0.0 mm 0.00 in0.0 mm 0.00 in0.0 mm
11:40 PM 50.2°F10.1°C 40.8°F4.9°C 70% 2.0 mph NW3.2 kmh NW 5.0 mph8.0 kmh 30.13 in1020.3 mb 0.00 in0.0 mm 0.00 in0.0 mm 0.00 in0.0 mm
11:45 PM 50.1°F10.1°C 40.7°F4.8°C 70% 3.0 mph NW4.8 kmh NW 5.0 mph8.0 kmh 30.13 in1020.3 mb 0.00 in0.0 mm 0.00 in0.0 mm 0.00 in0.0 mm
11:50 PM 50.0°F10.0°C 41.0°F5.0°C 71% 3.0 mph NW4.8 kmh NW 5.0 mph8.0 kmh 30.13 in1020.3 mb 0.00 in0.0 mm 0.00 in0.0 mm 0.00 in0.0 mm
11:55 PM 50.0°F10.0°C 41.0°F5.0°C 71% 2.0 mph WNW3.2 kmh WNW 5.0 mph8.0 kmh 30.14 in1020.7 mb 0.00 in0.0 mm 0.00 in0.0 mm 0.00 in0.0 mm